Weather reports worldwide

Advertisment
Cairngorm, United Kingdom (3065): temperature & dewpoint: 17.09.2017 06:00:00 - 23.09.2017 06:00:00 (BST)Cairngorm, United Kingdom (3065): wind speed & gusts: 17.09.2017 06:00:00 - 23.09.2017 06:00:00 (BST)Cairngorm, United Kingdom (3065): wind direction: 17.09.2017 06:00:00 - 23.09.2017 06:00:00 (BST)
Date & Time tt [°C] td [°C] ff [km/h] ff [kn] fx [km/h] fx [kn] dd
23.09.2017 06:00:00 4,4 4,4 68 37 89 48 S
23.09.2017 05:00:00 4,7 4,7 68 37 87 47 S
23.09.2017 04:00:00 4,3 4,3 65 35 85 46 S
23.09.2017 03:00:00 4,2 4,2 55 30 70 38 S
23.09.2017 02:00:00 4,5 4,5 54 29 72 39 S
23.09.2017 01:00:00 5,0 5,0 57 31 72 39 S
23.09.2017 00:00:00 5,2 5,2 46 25 61 33 S
22.09.2017 23:00:00 5,0 5,0 29 16 65 35 SSE
22.09.2017 22:00:00 4,5 4,5 54 29 76 41 SSE
22.09.2017 21:00:00 4,2 4,2 61 33 78 42 SSE
22.09.2017 20:00:00 3,9 3,9 59 32 89 48 SSE
22.09.2017 19:00:00 3,5 3,5 72 39 89 48 SSE
22.09.2017 18:00:00 3,3 3,3 59 32 76 41 SSE
22.09.2017 17:00:00 3,5 3,5 65 35 96 52 SSE
22.09.2017 16:00:00 3,5 3,5 74 40 102 55 SSE
22.09.2017 15:00:00 3,3 3,3 91 49 115 62 SSE
22.09.2017 14:00:00 3,1 3,1 91 49 124 67 SSE
22.09.2017 13:00:00 3,4 3,4 78 42 100 54 SSE
22.09.2017 12:00:00 2,7 2,7 61 33 89 48 SSE
22.09.2017 11:00:00 2,2 2,2 61 33 109 59 SSE
22.09.2017 10:00:00 2,0 2,0 57 31 93 50 S
22.09.2017 09:00:00 2,2 2,2 72 39 96 52 S
22.09.2017 08:00:00 2,1 2,1 78 42 96 52 S
22.09.2017 07:00:00 1,8 1,8 65 35 78 42 S
22.09.2017 06:00:00 1,2 1,2 37 20 61 33 S
22.09.2017 05:00:00 1,5 1,4 48 26 59 32 SSW
22.09.2017 04:00:00 1,7 1,7 44 24 61 33 SSW
22.09.2017 03:00:00 2,1 1,6 41 22 63 34 SW
22.09.2017 02:00:00 2,7 1,3 39 21 52 28 SW
22.09.2017 01:00:00 2,7 0,0 35 19 - - WSW
22.09.2017 00:00:00 2,8 -1,6 18 10 - - SW
21.09.2017 23:00:00 2,5 2,5 21 11 - - WSW
21.09.2017 22:00:00 2,1 2,1 29 16 - - W
21.09.2017 21:00:00 2,2 2,2 24 13 - - WNW
21.09.2017 20:00:00 2,3 2,3 34 18 - - WNW
21.09.2017 19:00:00 2,5 2,5 37 20 46 25 NW
21.09.2017 18:00:00 2,6 2,6 35 19 - - WNW
21.09.2017 17:00:00 2,8 2,8 28 15 - - WNW
21.09.2017 16:00:00 2,6 2,6 28 15 - - NW
21.09.2017 15:00:00 3,3 3,3 22 12 - - NW
21.09.2017 14:00:00 3,6 3,5 18 10 - - NW
21.09.2017 13:00:00 4,2 4,2 15 8 - - NNW
21.09.2017 12:00:00 4,2 4,2 9 5 - - ENE
21.09.2017 11:00:00 3,9 3,9 13 7 - - E
21.09.2017 10:00:00 3,7 3,7 15 8 - - E
21.09.2017 09:00:00 3,7 3,7 15 8 - - E
21.09.2017 08:00:00 3,6 3,6 16 9 - - ESE
21.09.2017 07:00:00 3,5 3,5 24 13 - - E
21.09.2017 06:00:00 3,6 3,6 22 12 - - E
21.09.2017 05:00:00 3,8 3,8 21 11 - - ENE
21.09.2017 04:00:00 4,0 4,0 21 11 - - E
21.09.2017 03:00:00 4,2 4,2 15 8 - - N
21.09.2017 02:00:00 4,3 4,3 21 11 - - N
21.09.2017 01:00:00 4,5 4,5 9 5 - - NNE
21.09.2017 00:00:00 5,6 5,6 4 2 - - SSW
20.09.2017 23:00:00 8,0 8,0 28 15 57 31 S
20.09.2017 22:00:00 8,1 8,1 34 18 - - SSE
20.09.2017 21:00:00 8,1 8,0 21 11 - - SE
20.09.2017 20:00:00 8,0 8,0 21 11 - - SE
20.09.2017 19:00:00 7,9 7,9 18 10 - - S
20.09.2017 18:00:00 8,0 8,0 16 9 - - S
20.09.2017 17:00:00 8,1 8,0 18 10 - - SSW
20.09.2017 16:00:00 8,0 8,0 18 10 - - SSW
20.09.2017 15:00:00 8,0 8,0 24 13 57 31 SW
20.09.2017 14:00:00 7,9 7,9 55 30 85 46 SSW
20.09.2017 13:00:00 7,8 7,8 67 36 80 43 SSW
20.09.2017 12:00:00 7,8 7,8 46 25 81 44 SSW
20.09.2017 11:00:00 7,8 7,8 52 28 96 52 SSW
20.09.2017 10:00:00 7,6 7,6 55 30 80 43 SSW
20.09.2017 09:00:00 8,0 8,0 57 31 85 46 SW
20.09.2017 08:00:00 7,9 7,9 63 34 96 52 SW
20.09.2017 07:00:00 7,5 7,5 63 34 93 50 SW
20.09.2017 06:00:00 7,5 7,4 63 34 78 42 WSW
20.09.2017 05:00:00 8,2 7,8 59 32 76 41 WSW
20.09.2017 04:00:00 8,4 8,0 50 27 68 37 WSW
20.09.2017 03:00:00 9,2 8,5 39 21 54 29 W
20.09.2017 02:00:00 7,8 6,0 18 10 - - SW
20.09.2017 01:00:00 5,7 5,0 18 10 - - SW
20.09.2017 00:00:00 5,5 5,0 28 15 - - WSW
19.09.2017 23:00:00 6,4 4,3 26 14 - - SW
19.09.2017 22:00:00 6,1 2,5 16 9 - - SW
19.09.2017 21:00:00 5,7 2,5 11 6 - - SSW
19.09.2017 20:00:00 5,9 2,8 11 6 - - S
19.09.2017 19:00:00 6,2 1,0 8 4 - - S
19.09.2017 18:00:00 6,9 -1,5 5 3 - - WSW
19.09.2017 17:00:00 6,8 -1,3 15 8 - - W
19.09.2017 16:00:00 6,6 -5,0 8 4 - - SW
19.09.2017 15:00:00 5,1 -0,9 24 13 - - WNW
19.09.2017 14:00:00 4,5 -0,9 16 9 - - WNW
19.09.2017 13:00:00 6,1 2,6 8 4 - - S
19.09.2017 12:00:00 3,2 2,7 9 5 - - WNW
19.09.2017 11:00:00 2,3 2,3 18 10 - - WNW
19.09.2017 10:00:00 2,3 2,3 16 9 - - WNW
19.09.2017 09:00:00 2,0 2,0 21 11 - - WNW
19.09.2017 08:00:00 2,7 2,7 18 10 - - WNW
19.09.2017 07:00:00 3,4 3,4 24 13 - - W
19.09.2017 06:00:00 1,8 1,8 31 17 - - W
19.09.2017 05:00:00 1,8 1,8 24 13 - - WNW
19.09.2017 04:00:00 2,5 2,5 24 13 - - W
19.09.2017 03:00:00 1,9 1,9 18 10 - - W
19.09.2017 02:00:00 2,0 2,0 22 12 - - W
19.09.2017 01:00:00 2,0 2,0 18 10 - - W
19.09.2017 00:00:00 2,0 2,0 11 6 - - WNW
18.09.2017 23:00:00 2,3 2,3 11 6 - - NW
18.09.2017 22:00:00 1,9 1,9 11 6 - - NW
18.09.2017 21:00:00 1,9 1,9 16 9 - - NW
18.09.2017 20:00:00 1,4 1,4 18 10 - - WNW
18.09.2017 19:00:00 1,7 1,7 21 11 - - WNW
18.09.2017 18:00:00 2,1 2,1 15 8 - - NW
18.09.2017 17:00:00 2,1 2,1 15 8 - - NNW
18.09.2017 16:00:00 2,1 2,1 13 7 - - WNW
18.09.2017 15:00:00 1,8 1,8 11 6 - - NW
18.09.2017 14:00:00 1,8 1,8 15 8 - - NNW
18.09.2017 13:00:00 1,8 1,8 16 9 - - N
18.09.2017 12:00:00 1,6 1,6 21 11 - - NNW
18.09.2017 11:00:00 1,3 1,3 24 13 - - NNW
18.09.2017 10:00:00 1,2 1,2 24 13 - - NNW
18.09.2017 09:00:00 1,2 1,2 26 14 - - NNW
18.09.2017 08:00:00 1,0 1,0 22 12 - - NNW
18.09.2017 07:00:00 0,9 0,9 28 15 - - NNW
18.09.2017 06:00:00 1,0 1,0 28 15 - - NNW
18.09.2017 05:00:00 0,7 0,7 22 12 - - NNW
18.09.2017 04:00:00 0,9 0,9 28 15 - - N
18.09.2017 03:00:00 0,9 0,9 22 12 - - NNW
18.09.2017 02:00:00 0,6 0,6 28 15 - - N
18.09.2017 01:00:00 0,4 0,4 29 16 - - N
18.09.2017 00:00:00 0,7 0,7 28 15 - - N
17.09.2017 23:00:00 1,1 1,1 26 14 - - N
17.09.2017 22:00:00 1,4 1,4 29 16 - - N
17.09.2017 21:00:00 1,9 1,9 31 17 - - N
17.09.2017 20:00:00 1,9 1,9 28 15 - - N
17.09.2017 19:00:00 2,7 2,7 22 12 - - N
17.09.2017 18:00:00 3,4 3,4 22 12 - - N
17.09.2017 17:00:00 3,8 3,8 21 11 - - N
17.09.2017 16:00:00 3,7 3,7 21 11 - - N
17.09.2017 15:00:00 4,0 4,0 18 10 - - NNE
17.09.2017 14:00:00 3,9 3,9 18 10 - - ENE
17.09.2017 13:00:00 3,6 3,6 26 14 - - ENE
17.09.2017 12:00:00 3,2 3,2 16 9 - - NNE
17.09.2017 11:00:00 3,2 3,2 28 15 - - NNE
17.09.2017 10:00:00 3,1 3,1 28 15 - - NNE
17.09.2017 09:00:00 3,0 3,0 26 14 - - NNE
17.09.2017 08:00:00 2,5 2,5 28 15 - - NNE
17.09.2017 07:00:00 2,7 2,7 34 18 46 25 NNE
17.09.2017 06:00:00 2,9 2,9 35 19 - - N

tt = temperature
td = dewpoint
ff = wind speed
fx = gusts
dd = wind direction

Next stations